createdAt,value
2023-12-04T00:00:14.913Z,-2.00
2023-12-04T00:02:43.269Z,-2.00
2023-12-04T00:05:11.616Z,-2.00
2023-12-04T00:07:39.866Z,-2.00
2023-12-04T00:10:09.629Z,-2.00
2023-12-04T00:12:38.005Z,-1.90
2023-12-04T00:15:09.031Z,-2.00
2023-12-04T00:17:40.673Z,-2.00
2023-12-04T00:20:10.405Z,-1.90
2023-12-04T00:22:38.834Z,-1.90
2023-12-04T00:25:08.503Z,-1.90
2023-12-04T00:27:36.819Z,-1.90
2023-12-04T00:30:51.038Z,-1.90
2023-12-04T00:33:20.711Z,-1.90
2023-12-04T00:35:48.886Z,-1.90
2023-12-04T00:38:17.106Z,-1.90
2023-12-04T00:40:45.484Z,-1.90
2023-12-04T00:43:13.801Z,-1.90
2023-12-04T00:45:42.292Z,-1.90
2023-12-04T00:48:10.651Z,-1.90
2023-12-04T00:54:21.358Z,-1.90
2023-12-04T00:56:49.798Z,-1.90
2023-12-04T00:59:18.028Z,-1.90
2023-12-04T01:01:46.285Z,-1.90
2023-12-04T01:04:14.510Z,-2.00
2023-12-04T01:06:42.875Z,-2.00
2023-12-04T01:09:11.333Z,-2.00
2023-12-04T01:11:40.941Z,-2.10
2023-12-04T01:14:09.218Z,-2.10
2023-12-04T01:16:37.480Z,-2.10
2023-12-04T01:19:05.738Z,-2.10
2023-12-04T01:21:34.064Z,-2.20
2023-12-04T01:24:02.553Z,-2.20
2023-12-04T01:26:30.801Z,-2.30
2023-12-04T01:29:01.091Z,-2.30
2023-12-04T01:31:29.224Z,-2.40
2023-12-04T01:33:57.592Z,-2.40
2023-12-04T01:36:25.801Z,-2.40
2023-12-04T01:38:53.987Z,-2.40
2023-12-04T01:41:22.246Z,-2.50
2023-12-04T01:43:52.078Z,-2.50
2023-12-04T01:46:22.415Z,-2.50
2023-12-04T01:48:51.307Z,-2.50
2023-12-04T01:51:20.261Z,-2.60
2023-12-04T01:53:49.455Z,-2.50
2023-12-04T01:56:18.160Z,-2.50
2023-12-04T01:58:47.041Z,-2.50
2023-12-04T02:01:18.275Z,-2.50
2023-12-04T02:03:49.134Z,-2.50
2023-12-04T02:06:21.044Z,-2.50
2023-12-04T02:08:49.860Z,-2.40
2023-12-04T02:11:18.009Z,-2.40
2023-12-04T02:13:46.414Z,-2.40
2023-12-04T02:16:17.073Z,-2.40
2023-12-04T02:18:47.305Z,-2.30
2023-12-04T02:21:15.882Z,-2.40
2023-12-04T02:23:44.035Z,-2.30
2023-12-04T02:26:18.983Z,-2.30
2023-12-04T02:28:52.921Z,-2.30
2023-12-04T02:31:23.326Z,-2.30
2023-12-04T02:33:55.191Z,-2.30
2023-12-04T02:36:25.128Z,-2.30
2023-12-04T02:38:53.796Z,-2.30
2023-12-04T02:41:23.456Z,-2.30
2023-12-04T02:43:51.640Z,-2.30
2023-12-04T02:46:19.923Z,-2.40
2023-12-04T02:48:48.184Z,-2.40
2023-12-04T02:51:16.377Z,-2.40
2023-12-04T02:53:44.535Z,-2.40
2023-12-04T02:56:13.467Z,-2.40
2023-12-04T02:58:42.991Z,-2.40
2023-12-04T03:01:11.590Z,-2.40
2023-12-04T03:03:39.800Z,-2.30
2023-12-04T03:06:09.082Z,-2.30
2023-12-04T03:08:37.932Z,-2.30
2023-12-04T03:11:06.730Z,-2.30
2023-12-04T03:13:34.888Z,-2.30
2023-12-04T03:16:04.749Z,-2.30
2023-12-04T03:18:33.090Z,-2.30
2023-12-04T03:21:01.483Z,-2.30
2023-12-04T03:23:29.600Z,-2.30
2023-12-04T03:25:58.462Z,-2.30
2023-12-04T03:28:26.639Z,-2.20
2023-12-04T03:30:54.878Z,-2.20
2023-12-04T03:33:24.523Z,-2.20
2023-12-04T03:35:52.683Z,-2.20
2023-12-04T03:38:20.833Z,-2.20
2023-12-04T03:40:49.003Z,-2.20
2023-12-04T03:43:17.316Z,-2.20
2023-12-04T03:45:45.617Z,-2.20
2023-12-04T03:48:13.899Z,-2.20
2023-12-04T03:50:43.528Z,-2.20
2023-12-04T03:53:12.564Z,-2.20
2023-12-04T03:55:40.708Z,-2.10
2023-12-04T03:58:09.829Z,-2.10
2023-12-04T04:00:42.718Z,-2.10
2023-12-04T04:03:11.167Z,-2.10
2023-12-04T04:05:39.327Z,-2.10
2023-12-04T04:08:09.051Z,-2.20
2023-12-04T04:10:37.263Z,-2.10
2023-12-04T04:13:05.414Z,-2.20
2023-12-04T04:15:33.985Z,-2.10
2023-12-04T04:18:02.336Z,-2.10
2023-12-04T04:20:30.506Z,-2.10
2023-12-04T04:22:59.191Z,-2.10
2023-12-04T04:25:30.717Z,-2.20
2023-12-04T04:27:58.941Z,-2.20
2023-12-04T04:30:27.122Z,-2.20
2023-12-04T04:32:55.803Z,-2.20
2023-12-04T04:35:23.958Z,-2.20
2023-12-04T04:37:52.671Z,-2.20
2023-12-04T04:40:20.862Z,-2.20
2023-12-04T04:42:50.405Z,-2.20
2023-12-04T04:45:18.572Z,-2.20
2023-12-04T04:47:46.798Z,-2.20
2023-12-04T04:50:15.251Z,-2.20
2023-12-04T04:52:43.402Z,-2.20
2023-12-04T04:55:11.886Z,-2.20
2023-12-04T04:58:01.353Z,-2.20
2023-12-04T05:00:29.839Z,-2.20
2023-12-04T05:02:58.470Z,-2.20
2023-12-04T05:05:26.646Z,-2.20
2023-12-04T05:07:54.783Z,-2.30
2023-12-04T05:10:22.954Z,-2.30
2023-12-04T05:12:51.185Z,-2.30
2023-12-04T05:15:20.732Z,-2.40
2023-12-04T05:17:49.325Z,-2.40
2023-12-04T05:20:17.568Z,-2.40
2023-12-04T05:22:45.819Z,-2.40
2023-12-04T05:25:14.031Z,-2.50
2023-12-04T05:27:42.215Z,-2.50
2023-12-04T05:30:10.901Z,-2.50
2023-12-04T05:32:40.460Z,-2.50
2023-12-04T05:35:09.170Z,-2.50
2023-12-04T05:37:37.385Z,-2.60
2023-12-04T05:40:06.791Z,-2.60
2023-12-04T05:42:35.071Z,-2.60
2023-12-04T05:45:03.425Z,-2.60
2023-12-04T05:47:31.665Z,-2.60
2023-12-04T05:50:01.471Z,-2.70
2023-12-04T05:52:29.742Z,-2.70
2023-12-04T05:54:57.860Z,-2.80
2023-12-04T05:57:26.073Z,-2.80
2023-12-04T05:59:54.223Z,-2.80
2023-12-04T06:02:22.765Z,-2.80
2023-12-04T06:04:50.996Z,-2.80
2023-12-04T06:07:20.548Z,-2.80
2023-12-04T06:09:48.781Z,-2.80
2023-12-04T06:12:16.961Z,-2.90
2023-12-04T06:14:45.206Z,-2.90
2023-12-04T06:17:13.644Z,-2.90
2023-12-04T06:19:41.862Z,-2.90
2023-12-04T06:22:10.516Z,-2.90
2023-12-04T06:24:40.800Z,-3.00
2023-12-04T06:27:13.411Z,-2.90
2023-12-04T06:29:42.073Z,-3.00
2023-12-04T06:32:11.671Z,-3.00
2023-12-04T06:34:40.653Z,-3.00
2023-12-04T06:37:12.372Z,-2.90
2023-12-04T06:39:43.233Z,-2.90
2023-12-04T06:42:14.890Z,-2.90
2023-12-04T06:44:43.641Z,-3.00
2023-12-04T06:47:14.047Z,-2.90
2023-12-04T06:49:42.248Z,-2.90
2023-12-04T06:52:10.506Z,-2.90
2023-12-04T06:54:38.808Z,-3.00
2023-12-04T06:57:09.150Z,-2.90
2023-12-04T06:59:37.314Z,-3.00
2023-12-04T07:02:06.654Z,-3.00
2023-12-04T07:04:34.964Z,-3.00
2023-12-04T07:07:06.188Z,-2.90
2023-12-04T07:09:35.136Z,-2.90
2023-12-04T07:12:03.968Z,-2.80
2023-12-04T07:14:34.766Z,-2.80
2023-12-04T07:17:02.953Z,-2.80
2023-12-04T07:19:31.915Z,-2.70
2023-12-04T07:22:00.492Z,-2.70
2023-12-04T07:24:28.676Z,-2.60
2023-12-04T07:26:57.015Z,-2.60
2023-12-04T07:29:25.145Z,-2.60
2023-12-04T07:31:54.889Z,-2.60
2023-12-04T07:34:23.130Z,-2.50
2023-12-04T07:36:51.866Z,-2.50
2023-12-04T07:39:21.698Z,-2.50
2023-12-04T07:41:49.858Z,-2.40
2023-12-04T07:44:18.295Z,-2.40
2023-12-04T07:46:47.626Z,-2.30
2023-12-04T07:49:17.590Z,-2.30
2023-12-04T07:51:45.798Z,-2.30
2023-12-04T07:54:14.308Z,-2.20
2023-12-04T07:56:43.345Z,-2.10
2023-12-04T07:59:11.496Z,-2.10
2023-12-04T08:01:40.521Z,-2.00
2023-12-04T08:04:08.755Z,-2.00
2023-12-04T08:06:38.479Z,-1.90
2023-12-04T08:09:11.048Z,-1.80
2023-12-04T08:11:39.228Z,-1.30
2023-12-04T08:14:08.359Z,-1.00
2023-12-04T08:16:36.543Z,-0.80
2023-12-04T08:19:05.282Z,-0.70
2023-12-04T08:21:34.205Z,-0.60
2023-12-04T08:24:04.385Z,-0.20
2023-12-04T08:26:32.520Z,0.40
2023-12-04T08:29:00.669Z,1.10
2023-12-04T08:31:28.845Z,1.60
2023-12-04T08:33:57.058Z,2.10
2023-12-04T08:36:25.310Z,2.50
2023-12-04T08:38:54.263Z,2.90
2023-12-04T08:41:23.848Z,3.30
2023-12-04T08:43:52.024Z,3.70
2023-12-04T08:46:20.357Z,4.10
2023-12-04T08:48:48.713Z,4.50
2023-12-04T08:51:20.444Z,4.80
2023-12-04T08:54:27.539Z,5.10
2023-12-04T08:57:15.617Z,5.50
2023-12-04T08:59:47.502Z,5.90
2023-12-04T09:02:15.789Z,6.10
2023-12-04T09:04:46.861Z,6.40
2023-12-04T09:09:47.505Z,6.80
2023-12-04T09:12:17.265Z,7.00
2023-12-04T09:14:45.517Z,7.30
2023-12-04T09:17:13.744Z,7.50
2023-12-04T09:19:42.174Z,7.60
2023-12-04T09:22:17.370Z,7.80
2023-12-04T09:24:47.879Z,7.90
2023-12-04T09:27:18.036Z,8.00
2023-12-04T09:29:46.217Z,8.10
2023-12-04T09:32:14.434Z,8.30
2023-12-04T09:34:42.786Z,8.30
2023-12-04T09:37:12.045Z,8.30
2023-12-04T09:39:41.678Z,8.40
2023-12-04T09:42:11.699Z,8.40
2023-12-04T09:44:42.405Z,8.30
2023-12-04T09:47:12.624Z,8.20
2023-12-04T09:49:41.522Z,8.10
2023-12-04T09:52:09.810Z,8.10
2023-12-04T09:54:41.057Z,8.00
2023-12-04T09:57:09.372Z,8.00
2023-12-04T09:59:38.165Z,8.00
2023-12-04T10:02:08.511Z,7.80
2023-12-04T10:04:37.722Z,7.50
2023-12-04T10:07:08.022Z,7.10
2023-12-04T10:09:36.579Z,6.90
2023-12-04T10:12:05.402Z,6.70
2023-12-04T10:14:33.571Z,6.40
2023-12-04T10:17:01.709Z,6.10
2023-12-04T10:19:31.712Z,5.80
2023-12-04T10:22:01.596Z,5.50
2023-12-04T10:24:32.166Z,5.30
2023-12-04T10:27:01.214Z,4.90
2023-12-04T10:29:31.371Z,4.60
2023-12-04T10:32:03.840Z,4.40
2023-12-04T10:34:35.299Z,4.20
2023-12-04T10:37:05.094Z,4.00
2023-12-04T10:39:33.397Z,3.90
2023-12-04T10:42:05.018Z,3.70
2023-12-04T10:44:34.151Z,3.60
2023-12-04T10:47:03.457Z,3.50
2023-12-04T10:49:33.482Z,3.40
2023-12-04T10:52:02.446Z,3.30
2023-12-04T10:54:30.831Z,3.20
2023-12-04T10:57:04.692Z,3.00
2023-12-04T10:59:38.477Z,3.00
2023-12-04T11:02:09.755Z,2.90
2023-12-04T11:04:40.944Z,2.80
2023-12-04T11:07:10.678Z,2.80
2023-12-04T11:09:39.968Z,2.70
2023-12-04T11:12:13.899Z,2.60
2023-12-04T11:14:46.556Z,2.60
2023-12-04T11:17:18.179Z,2.50
2023-12-04T11:19:55.607Z,2.40
2023-12-04T11:22:24.347Z,2.40
2023-12-04T11:24:53.397Z,2.30
2023-12-04T11:27:23.473Z,2.30
2023-12-04T11:29:53.752Z,2.20
2023-12-04T11:32:22.563Z,2.20
2023-12-04T11:34:53.975Z,2.20
2023-12-04T11:37:22.789Z,2.10
2023-12-04T11:39:52.337Z,2.00
2023-12-04T11:42:27.163Z,2.10
2023-12-04T11:44:59.892Z,2.00
2023-12-04T11:47:31.778Z,2.00
2023-12-04T11:50:01.554Z,2.00
2023-12-04T11:52:36.239Z,1.90
2023-12-04T11:55:07.359Z,1.90
2023-12-04T11:57:37.185Z,1.80
2023-12-04T12:00:21.911Z,1.80
2023-12-04T12:03:17.534Z,1.80
2023-12-04T12:05:54.342Z,1.70
2023-12-04T12:11:13.615Z,1.80
2023-12-04T12:13:43.508Z,1.70
2023-12-04T12:16:14.453Z,1.70
2023-12-04T12:18:51.014Z,1.60
2023-12-04T12:21:21.139Z,1.60
2023-12-04T12:23:49.538Z,1.60
2023-12-04T12:26:17.757Z,1.50
2023-12-04T12:28:47.422Z,1.50
2023-12-04T12:31:18.179Z,1.40
2023-12-04T12:33:48.672Z,1.40
2023-12-04T12:36:18.815Z,1.40
2023-12-04T12:38:54.955Z,1.40
2023-12-04T12:41:23.659Z,1.30
2023-12-04T12:43:57.246Z,1.30
2023-12-04T12:46:27.470Z,1.30
2023-12-04T12:49:09.596Z,1.30
2023-12-04T12:51:43.312Z,1.30
2023-12-04T12:54:12.983Z,1.20
2023-12-04T12:56:41.438Z,1.20
2023-12-04T12:59:18.208Z,1.20
2023-12-04T13:01:46.665Z,1.20
2023-12-04T13:04:17.389Z,1.20
2023-12-04T13:06:45.955Z,1.20
2023-12-04T13:09:19.752Z,1.20
2023-12-04T13:11:47.952Z,1.10
2023-12-04T13:14:16.210Z,1.10
2023-12-04T13:16:44.469Z,1.10
2023-12-04T13:19:21.434Z,1.10
2023-12-04T13:21:59.973Z,1.00
2023-12-04T13:24:33.308Z,1.00
2023-12-04T13:27:01.557Z,0.90
2023-12-04T13:29:29.706Z,0.90
2023-12-04T13:31:57.956Z,0.80
2023-12-04T13:34:26.157Z,0.80
2023-12-04T13:36:54.445Z,0.80
2023-12-04T13:39:28.840Z,0.70
2023-12-04T13:42:16.094Z,0.70
2023-12-04T13:44:44.246Z,0.70
2023-12-04T13:47:13.422Z,0.70
2023-12-04T13:49:41.629Z,0.60
2023-12-04T13:52:09.819Z,0.60
2023-12-04T13:54:45.437Z,0.60
2023-12-04T13:57:22.119Z,0.50
2023-12-04T13:59:50.404Z,0.50
2023-12-04T14:02:18.724Z,0.50
2023-12-04T14:04:47.157Z,0.40
2023-12-04T14:07:16.177Z,0.40
2023-12-04T14:09:45.849Z,0.40
2023-12-04T14:12:17.242Z,0.40
2023-12-04T14:14:45.583Z,0.40
2023-12-04T14:17:13.961Z,0.30
2023-12-04T14:19:42.608Z,0.20
2023-12-04T14:22:11.086Z,0.10
2023-12-04T14:24:39.453Z,0.10
2023-12-04T14:27:07.610Z,0.10
2023-12-04T14:29:37.100Z,0.00
2023-12-04T14:32:05.720Z,0.00
2023-12-04T14:34:34.860Z,0.00
2023-12-04T14:37:03.295Z,-0.20
2023-12-04T14:39:31.464Z,-0.20
2023-12-04T14:41:59.612Z,-0.30
2023-12-04T14:44:27.754Z,-0.30
2023-12-04T14:46:57.724Z,-0.40
2023-12-04T14:49:25.951Z,-0.50
2023-12-04T14:51:54.210Z,-0.50
2023-12-04T14:54:36.962Z,-0.50
2023-12-04T14:57:49.427Z,-0.60
2023-12-04T15:01:09.303Z,-0.60
2023-12-04T15:03:52.687Z,-0.70
2023-12-04T15:06:41.236Z,-0.70
2023-12-04T15:09:26.934Z,-0.70
2023-12-04T15:12:17.678Z,-0.70
2023-12-04T15:14:50.957Z,-0.80
2023-12-04T15:17:30.880Z,-0.80
2023-12-04T15:20:20.770Z,-0.80
2023-12-04T15:22:49.283Z,-0.80
2023-12-04T15:25:16.429Z,-0.90
2023-12-04T15:27:46.152Z,-0.90
2023-12-04T15:30:13.980Z,-0.90
2023-12-04T15:32:42.275Z,-0.90
2023-12-04T15:35:14.243Z,-1.00
2023-12-04T15:37:42.004Z,-1.00
2023-12-04T15:40:12.529Z,-1.00
2023-12-04T15:42:39.962Z,-1.00
2023-12-04T15:45:09.076Z,-1.10
2023-12-04T15:47:36.468Z,-1.10
2023-12-04T15:50:06.997Z,-1.10
2023-12-04T15:52:40.843Z,-1.10
2023-12-04T15:55:11.756Z,-1.20
2023-12-04T15:57:39.125Z,-1.20
2023-12-04T16:00:10.629Z,-1.30
2023-12-04T16:02:37.794Z,-1.30
2023-12-04T16:05:07.149Z,-1.30
2023-12-04T16:07:36.785Z,-1.40
2023-12-04T16:10:07.683Z,-1.40
2023-12-04T16:12:36.263Z,-1.40
2023-12-04T16:15:05.338Z,-1.50
2023-12-04T16:17:34.968Z,-1.50
2023-12-04T16:20:04.034Z,-1.60
2023-12-04T16:22:32.245Z,-1.60
2023-12-04T16:25:02.662Z,-1.60
2023-12-04T16:27:30.807Z,-1.60
2023-12-04T16:29:58.972Z,-1.60
2023-12-04T16:32:27.952Z,-1.70
2023-12-04T16:34:56.974Z,-1.70
2023-12-04T16:37:25.581Z,-1.70
2023-12-04T16:39:53.816Z,-1.70
2023-12-04T16:42:23.856Z,-1.70
2023-12-04T16:44:51.986Z,-1.80
2023-12-04T16:47:20.281Z,-1.80
2023-12-04T16:49:48.537Z,-1.80
2023-12-04T16:52:16.810Z,-1.80
2023-12-04T16:54:45.431Z,-1.80
2023-12-04T16:57:13.703Z,-1.80
2023-12-04T16:59:43.230Z,-1.80
2023-12-04T17:02:11.402Z,-1.80
2023-12-04T17:04:40.587Z,-1.80
2023-12-04T17:07:08.829Z,-1.80
2023-12-04T17:09:38.169Z,-1.90
2023-12-04T17:12:07.410Z,-1.80
2023-12-04T17:14:35.603Z,-1.80
2023-12-04T17:17:06.696Z,-1.80
2023-12-04T17:19:36.671Z,-1.80
2023-12-04T17:22:05.211Z,-1.90
2023-12-04T17:24:34.313Z,-1.90
2023-12-04T17:27:02.528Z,-1.90
2023-12-04T17:29:30.904Z,-1.90
2023-12-04T17:31:59.063Z,-1.90
2023-12-04T17:34:29.366Z,-2.00
2023-12-04T17:36:57.619Z,-2.00
2023-12-04T17:39:25.832Z,-2.00
2023-12-04T17:41:54.366Z,-2.00
2023-12-04T17:44:24.173Z,-2.00
2023-12-04T17:46:52.364Z,-2.00
2023-12-04T17:49:20.621Z,-2.00
2023-12-04T17:51:50.283Z,-1.90
2023-12-04T17:54:19.343Z,-2.00
2023-12-04T17:56:47.671Z,-2.00
2023-12-04T17:59:15.957Z,-2.00
2023-12-04T18:01:44.186Z,-2.00
2023-12-04T18:04:13.063Z,-2.00
2023-12-04T18:06:41.379Z,-2.00
2023-12-04T18:09:12.405Z,-2.00
2023-12-04T18:11:40.702Z,-2.00
2023-12-04T18:14:13.919Z,-2.00
2023-12-04T18:16:42.073Z,-2.10
2023-12-04T18:19:10.496Z,-2.10
2023-12-04T18:21:38.762Z,-2.00
2023-12-04T18:24:07.376Z,-2.10
2023-12-04T18:26:40.163Z,-2.10
2023-12-04T18:29:08.915Z,-2.10
2023-12-04T18:31:37.582Z,-2.10
2023-12-04T18:34:13.438Z,-2.10
2023-12-04T18:36:45.252Z,-2.10
2023-12-04T18:39:16.993Z,-2.10
2023-12-04T18:41:47.258Z,-2.00
2023-12-04T18:44:15.860Z,-2.10
2023-12-04T18:46:46.103Z,-2.10
2023-12-04T18:49:16.696Z,-2.10
2023-12-04T18:51:45.435Z,-2.10
2023-12-04T18:54:14.261Z,-2.10
2023-12-04T18:56:42.561Z,-2.10
2023-12-04T18:59:12.110Z,-2.10
2023-12-04T19:01:40.274Z,-2.10
2023-12-04T19:04:08.875Z,-2.10
2023-12-04T19:06:37.181Z,-2.10
2023-12-04T19:09:06.023Z,-2.10
2023-12-04T19:11:34.293Z,-2.10
2023-12-04T19:14:02.509Z,-2.10
2023-12-04T19:16:31.012Z,-2.10
2023-12-04T19:18:59.162Z,-2.10
2023-12-04T19:21:27.611Z,-2.10
2023-12-04T19:23:55.797Z,-2.20
2023-12-04T19:26:24.011Z,-2.10
2023-12-04T19:28:52.130Z,-2.10
2023-12-04T19:31:20.241Z,-2.20
2023-12-04T19:33:49.939Z,-2.20
2023-12-04T19:36:19.925Z,-2.20
2023-12-04T19:38:48.085Z,-2.20
2023-12-04T19:41:16.262Z,-2.20
2023-12-04T19:43:44.369Z,-2.20
2023-12-04T19:46:14.631Z,-2.20
2023-12-04T19:48:42.839Z,-2.20
2023-12-04T19:51:16.170Z,-2.20
2023-12-04T19:53:44.308Z,-2.20
2023-12-04T19:56:12.967Z,-2.20
2023-12-04T19:58:41.898Z,-2.20
2023-12-04T20:01:10.468Z,-2.30
2023-12-04T20:03:39.025Z,-2.30
2023-12-04T20:06:08.710Z,-2.30
2023-12-04T20:08:38.318Z,-2.30
2023-12-04T20:11:06.726Z,-2.30
2023-12-04T20:13:35.525Z,-2.30
2023-12-04T20:16:10.967Z,-2.30
2023-12-04T20:18:39.369Z,-2.30
2023-12-04T20:21:08.518Z,-2.30
2023-12-04T20:23:38.227Z,-2.30
2023-12-04T20:26:06.591Z,-2.30
2023-12-04T20:28:34.718Z,-2.30
2023-12-04T20:31:02.846Z,-2.30
2023-12-04T20:33:31.377Z,-2.30
2023-12-04T20:36:03.725Z,-2.30
2023-12-04T20:38:31.942Z,-2.30
2023-12-04T20:41:01.488Z,-2.30
2023-12-04T20:43:30.007Z,-2.30
2023-12-04T20:45:58.254Z,-2.30
2023-12-04T20:48:26.467Z,-2.30
2023-12-04T20:50:57.530Z,-2.30
2023-12-04T20:53:27.079Z,-2.30
2023-12-04T20:55:55.295Z,-2.30
2023-12-04T20:58:25.108Z,-2.40
2023-12-04T21:00:53.327Z,-2.40
2023-12-04T21:03:21.571Z,-2.40
2023-12-04T21:05:49.813Z,-2.30
2023-12-04T21:08:18.013Z,-2.30
2023-12-04T21:10:46.671Z,-2.40
2023-12-04T21:13:14.939Z,-2.30
2023-12-04T21:15:44.850Z,-2.40
2023-12-04T21:18:13.245Z,-2.40
2023-12-04T21:20:41.513Z,-2.40
2023-12-04T21:23:11.186Z,-2.40
2023-12-04T21:25:39.656Z,-2.40
2023-12-04T21:28:08.162Z,-2.40
2023-12-04T21:30:36.612Z,-2.40
2023-12-04T21:33:06.234Z,-2.40
2023-12-04T21:35:36.756Z,-2.40
2023-12-04T21:38:05.036Z,-2.50
2023-12-04T21:40:33.230Z,-2.50
2023-12-04T21:43:01.421Z,-2.50
2023-12-04T21:45:29.672Z,-2.50
2023-12-04T21:47:57.975Z,-2.40
2023-12-04T21:50:27.813Z,-2.50
2023-12-04T21:52:55.981Z,-2.50
2023-12-04T21:55:24.498Z,-2.50
2023-12-04T21:57:52.721Z,-2.50
2023-12-04T22:00:21.922Z,-2.50
2023-12-04T22:02:50.192Z,-2.50
2023-12-04T22:05:18.542Z,-2.50
2023-12-04T22:07:48.144Z,-2.50
2023-12-04T22:10:16.365Z,-2.50
2023-12-04T22:12:44.518Z,-2.50
2023-12-04T22:15:12.738Z,-2.50
2023-12-04T22:17:41.714Z,-2.50
2023-12-04T22:20:10.293Z,-2.50
2023-12-04T22:22:38.916Z,-2.60
2023-12-04T22:25:09.727Z,-2.60
2023-12-04T22:27:37.964Z,-2.60
2023-12-04T22:30:07.759Z,-2.60
2023-12-04T22:32:36.013Z,-2.60
2023-12-04T22:35:04.502Z,-2.60
2023-12-04T22:37:32.670Z,-2.50
2023-12-04T22:40:00.890Z,-2.60
2023-12-04T22:42:30.426Z,-2.60
2023-12-04T22:44:58.644Z,-2.60
2023-12-04T22:47:27.810Z,-2.60
2023-12-04T22:49:56.010Z,-2.60
2023-12-04T22:52:24.287Z,-2.60
2023-12-04T22:54:52.482Z,-2.60
2023-12-04T22:57:21.505Z,-2.60
2023-12-04T22:59:51.100Z,-2.60
2023-12-04T23:02:19.326Z,-2.60
2023-12-04T23:04:47.874Z,-2.60
2023-12-04T23:07:16.196Z,-2.70
2023-12-04T23:09:44.868Z,-2.60
2023-12-04T23:12:13.208Z,-2.70
2023-12-04T23:14:41.493Z,-2.70
2023-12-04T23:17:11.037Z,-2.60
2023-12-04T23:19:39.330Z,-2.60
2023-12-04T23:22:07.598Z,-2.70
2023-12-04T23:24:35.854Z,-2.70
2023-12-04T23:27:04.189Z,-2.60
2023-12-04T23:29:32.332Z,-2.70
2023-12-04T23:32:00.526Z,-2.70
2023-12-04T23:34:30.088Z,-2.70
2023-12-04T23:36:58.302Z,-2.80
2023-12-04T23:39:26.461Z,-2.80
2023-12-04T23:41:54.621Z,-2.80
2023-12-04T23:44:23.085Z,-2.80
2023-12-04T23:46:51.231Z,-2.80
2023-12-04T23:49:19.473Z,-2.70
2023-12-04T23:51:49.083Z,-2.70
2023-12-04T23:54:17.242Z,-2.70
2023-12-04T23:56:45.433Z,-2.70
2023-12-04T23:59:13.603Z,-2.60
